createdAt,value
2022-12-25T00:01:54.619Z,101333.22
2022-12-25T00:04:23.821Z,101335.88
2022-12-25T00:06:51.690Z,101327.88
2022-12-25T00:09:19.520Z,101332.34
2022-12-25T00:11:47.331Z,101335.03
2022-12-25T00:14:15.111Z,101337.69
2022-12-25T00:16:42.895Z,101331.47
2022-12-25T00:19:10.882Z,101325.28
2022-12-25T00:21:40.199Z,101330.59
2022-12-25T00:24:08.272Z,101318.16
2022-12-25T00:26:36.141Z,101321.72
2022-12-25T00:29:04.000Z,101321.72
2022-12-25T00:31:31.928Z,101321.72
2022-12-25T00:33:59.969Z,101313.75
2022-12-25T00:36:27.896Z,101314.63
2022-12-25T00:39:28.241Z,101305.75
2022-12-25T00:42:37.703Z,101308.41
2022-12-25T00:46:00.688Z,101313.75
2022-12-25T00:49:09.945Z,101301.28
2022-12-25T00:52:18.807Z,101309.28
2022-12-25T00:56:01.349Z,101318.19
2022-12-25T01:03:52.775Z,101311.94
2022-12-25T01:10:16.685Z,101297.72
2022-12-25T01:13:57.478Z,101295.06
2022-12-25T01:20:42.547Z,101303.94
2022-12-25T01:24:05.460Z,101307.50
2022-12-25T01:35:14.703Z,101300.41
2022-12-25T01:37:44.132Z,101293.25
2022-12-25T01:42:27.254Z,101290.59
2022-12-25T01:45:18.180Z,101291.50
2022-12-25T01:48:06.015Z,101274.56
2022-12-25T01:51:19.977Z,101281.69
2022-12-25T01:54:28.765Z,101286.16
2022-12-25T01:57:22.690Z,101295.94
2022-12-25T02:00:36.020Z,101304.84
2022-12-25T02:03:48.216Z,101310.19
2022-12-25T02:07:18.474Z,101304.84
2022-12-25T02:16:58.073Z,101316.47
2022-12-25T02:20:13.137Z,101317.34
2022-12-25T02:23:37.995Z,101323.59
2022-12-25T02:27:31.164Z,101320.94
2022-12-25T02:30:58.777Z,101330.72
2022-12-25T02:34:00.695Z,101321.81
2022-12-25T02:37:50.174Z,101328.06
2022-12-25T02:41:10.787Z,101320.91
2022-12-25T02:44:33.445Z,101320.03
2022-12-25T02:52:03.652Z,101310.22
2022-12-25T02:55:30.029Z,101324.47
2022-12-25T02:58:33.963Z,101320.91
2022-12-25T03:51:36.214Z,101261.25
2022-12-25T03:59:16.500Z,101228.31
2022-12-25T04:02:52.149Z,101233.66
2022-12-25T04:05:37.406Z,101232.78
2022-12-25T04:08:28.916Z,101243.44
2022-12-25T04:16:40.890Z,101243.47
2022-12-25T04:18:54.521Z,101251.41
2022-12-25T04:25:13.997Z,101243.41
2022-12-25T04:32:51.632Z,101243.38
2022-12-25T04:39:41.751Z,101242.50
2022-12-25T04:42:50.544Z,101240.72
2022-12-25T04:45:56.321Z,101244.28
2022-12-25T04:59:39.709Z,101221.13
2022-12-25T05:02:34.856Z,101226.47
2022-12-25T05:05:41.961Z,101225.56
2022-12-25T05:08:50.464Z,101233.56
2022-12-25T05:11:53.644Z,101230.00
2022-12-25T05:14:54.977Z,101224.69
2022-12-25T05:18:05.901Z,101230.00
2022-12-25T05:21:18.194Z,101231.81
2022-12-25T05:28:58.179Z,101237.19
2022-12-25T05:31:55.639Z,101248.75
2022-12-25T05:35:08.899Z,101228.28
2022-12-25T05:38:22.077Z,101222.94
2022-12-25T05:41:35.108Z,101223.84
2022-12-25T05:45:20.454Z,101217.59
2022-12-25T05:48:24.558Z,101207.81
2022-12-25T06:05:01.457Z,101198.94
2022-12-25T06:08:00.389Z,101189.16
2022-12-25T06:10:55.715Z,101179.34
2022-12-25T06:13:34.456Z,101179.34
2022-12-25T06:18:08.913Z,101171.31
2022-12-25T06:20:06.790Z,101176.66
2022-12-25T06:22:50.055Z,101168.66
2022-12-25T06:26:01.625Z,101168.63
2022-12-25T06:32:58.026Z,101167.75
2022-12-25T06:35:37.878Z,101149.97
2022-12-25T06:39:59.985Z,101148.16
2022-12-25T06:42:23.521Z,101165.97
2022-12-25T06:45:11.289Z,101154.38
2022-12-25T06:51:17.800Z,101149.97
2022-12-25T06:53:59.057Z,101146.38
2022-12-25T06:56:47.639Z,101142.81
2022-12-25T06:59:24.924Z,101143.69
2022-12-25T07:05:28.088Z,101131.25
2022-12-25T07:12:09.743Z,101111.66
2022-12-25T07:14:54.132Z,101100.97
2022-12-25T07:17:44.294Z,101094.69
2022-12-25T07:20:39.274Z,101090.25
2022-12-25T07:23:54.242Z,101079.56
2022-12-25T07:26:28.625Z,101079.56
2022-12-25T07:30:08.565Z,101073.34
2022-12-25T07:33:29.006Z,101084.00
2022-12-25T07:37:36.725Z,101089.34
2022-12-25T07:54:19.611Z,101075.03
2022-12-25T07:56:51.852Z,101077.69
2022-12-25T07:59:22.339Z,101069.66
2022-12-25T08:01:51.170Z,101064.31
2022-12-25T08:04:19.455Z,101059.88
2022-12-25T08:06:47.375Z,101058.06
2022-12-25T08:09:15.368Z,101061.63
2022-12-25T08:11:46.690Z,101081.19
2022-12-25T08:14:16.712Z,101094.56
2022-12-25T08:16:46.506Z,101098.13
2022-12-25T08:19:14.740Z,101094.53
2022-12-25T08:21:42.648Z,101097.22
2022-12-25T08:24:10.787Z,101090.97
2022-12-25T08:26:38.825Z,101110.59
2022-12-25T08:29:06.694Z,101112.34
2022-12-25T08:31:39.423Z,101100.78
2022-12-25T08:34:11.469Z,101090.94
2022-12-25T08:36:39.586Z,101080.25
2022-12-25T08:39:07.515Z,101090.94
2022-12-25T08:41:36.610Z,101087.38
2022-12-25T08:44:04.515Z,101105.19
2022-12-25T08:46:32.355Z,101117.69
2022-12-25T08:49:01.584Z,101126.59
2022-12-25T08:51:29.644Z,101124.78
2022-12-25T08:54:01.098Z,101115.03
2022-12-25T08:56:29.600Z,101083.81
2022-12-25T08:58:57.509Z,101085.59
2022-12-25T09:01:25.432Z,101097.16
2022-12-25T09:03:53.352Z,101084.69
2022-12-25T09:06:22.816Z,101076.66
2022-12-25T09:08:50.775Z,101087.34
2022-12-25T09:11:20.173Z,101097.16
2022-12-25T09:13:48.483Z,101098.94
2022-12-25T09:16:19.309Z,101102.47
2022-12-25T09:18:47.280Z,101103.38
2022-12-25T09:21:16.703Z,101098.91
2022-12-25T09:23:46.421Z,101095.38
2022-12-25T09:26:16.668Z,101091.78
2022-12-25T09:28:50.813Z,101109.63
2022-12-25T09:31:19.841Z,101118.53
2022-12-25T09:33:48.105Z,101121.22
2022-12-25T09:36:15.899Z,101116.75
2022-12-25T09:38:45.122Z,101117.69
2022-12-25T09:41:18.725Z,101119.47
2022-12-25T09:43:49.901Z,101123.94
2022-12-25T09:46:21.835Z,101140.88
2022-12-25T09:48:58.636Z,101128.41
2022-12-25T09:51:28.978Z,101129.28
2022-12-25T09:54:02.997Z,101123.06
2022-12-25T09:56:30.718Z,101117.69
2022-12-25T09:58:58.775Z,101113.25
2022-12-25T10:01:34.291Z,101104.31
2022-12-25T10:04:21.460Z,101083.84
2022-12-25T10:07:05.114Z,101077.59
2022-12-25T10:09:51.403Z,101078.50
2022-12-25T10:12:35.688Z,101084.72
2022-12-25T10:15:17.084Z,101090.94
2022-12-25T10:18:01.668Z,101064.22
2022-12-25T10:20:43.736Z,101039.25
2022-12-25T10:23:16.984Z,101042.84
2022-12-25T10:25:47.712Z,101039.25
2022-12-25T10:28:21.022Z,101030.31
2022-12-25T10:30:51.618Z,101031.19
2022-12-25T10:33:19.601Z,101025.84
2022-12-25T10:35:47.539Z,101024.00
2022-12-25T10:38:18.312Z,101030.28
2022-12-25T10:41:04.389Z,101031.13
2022-12-25T10:43:38.287Z,101038.28
2022-12-25T10:46:12.906Z,101026.69
2022-12-25T10:48:44.261Z,101032.03
2022-12-25T10:51:12.275Z,101024.03
2022-12-25T10:53:42.924Z,101020.44
2022-12-25T10:56:18.922Z,101024.91
2022-12-25T10:58:47.231Z,101007.06
2022-12-25T11:01:15.421Z,101005.25
2022-12-25T11:03:46.918Z,100998.13
2022-12-25T11:06:26.443Z,100995.41
2022-12-25T11:08:56.800Z,100990.94
2022-12-25T11:11:27.389Z,100990.91
2022-12-25T11:13:58.220Z,100985.59
2022-12-25T11:16:32.204Z,100990.94
2022-12-25T11:19:01.150Z,100991.81
2022-12-25T11:21:30.589Z,100988.25
2022-12-25T11:24:00.648Z,100976.66
2022-12-25T11:26:31.813Z,100971.31
2022-12-25T11:29:00.294Z,100961.50
2022-12-25T11:31:37.601Z,100952.59
2022-12-25T11:34:08.982Z,100936.53
2022-12-25T11:36:44.978Z,100924.09
2022-12-25T11:39:23.209Z,100924.09
2022-12-25T11:41:54.920Z,100911.63
2022-12-25T11:44:36.641Z,100906.25
2022-12-25T11:47:13.006Z,100892.88
2022-12-25T11:49:50.059Z,100891.06
2022-12-25T11:52:20.622Z,100867.00
2022-12-25T11:54:55.276Z,100866.97
2022-12-25T11:57:27.920Z,100863.41
2022-12-25T12:00:01.181Z,100864.31
2022-12-25T12:02:36.583Z,100883.03
2022-12-25T12:05:14.800Z,100890.13
2022-12-25T12:07:54.017Z,100884.78
2022-12-25T12:10:27.914Z,100885.66
2022-12-25T12:13:04.692Z,100874.97
2022-12-25T12:15:42.416Z,100874.06
2022-12-25T12:18:11.164Z,100865.16
2022-12-25T12:20:39.150Z,100858.88
2022-12-25T12:23:17.714Z,100857.06
2022-12-25T12:25:46.327Z,100846.34
2022-12-25T12:28:23.852Z,100843.63
2022-12-25T12:31:00.698Z,100844.53
2022-12-25T12:33:32.985Z,100840.00
2022-12-25T12:36:03.027Z,100855.09
2022-12-25T12:38:33.845Z,100856.00
2022-12-25T12:41:03.373Z,100856.88
2022-12-25T12:43:39.831Z,100860.47
2022-12-25T12:46:15.838Z,100841.84
2022-12-25T12:48:46.605Z,100836.53
2022-12-25T12:51:27.498Z,100826.69
2022-12-25T12:54:08.142Z,100816.00
2022-12-25T12:56:35.942Z,100814.19
2022-12-25T12:59:05.198Z,100813.28
2022-12-25T13:01:43.737Z,100819.53
2022-12-25T13:04:33.139Z,100821.28
2022-12-25T13:07:11.254Z,100820.41
2022-12-25T13:09:57.244Z,100815.06
2022-12-25T13:12:25.027Z,100810.63
2022-12-25T13:14:54.293Z,100805.28
2022-12-25T13:17:27.103Z,100806.19
2022-12-25T13:19:58.099Z,100812.47
2022-12-25T13:22:30.964Z,100806.19
2022-12-25T13:25:00.476Z,100796.41
2022-12-25T13:27:30.555Z,100796.41
2022-12-25T13:30:13.368Z,100782.16
2022-12-25T13:32:41.956Z,100787.47
2022-12-25T13:35:14.067Z,100781.22
2022-12-25T13:37:42.544Z,100785.66
2022-12-25T13:40:22.144Z,100776.72
2022-12-25T13:42:49.874Z,100780.28
2022-12-25T13:45:24.198Z,100778.50
2022-12-25T13:47:55.400Z,100780.28
2022-12-25T13:50:26.115Z,100782.06
2022-12-25T13:52:57.370Z,100781.16
2022-12-25T13:55:27.289Z,100785.59
2022-12-25T13:57:57.596Z,100777.56
2022-12-25T14:00:33.338Z,100773.97
2022-12-25T14:03:01.991Z,100779.34
2022-12-25T14:05:37.895Z,100773.97
2022-12-25T14:08:16.309Z,100762.41
2022-12-25T14:10:48.193Z,100765.97
2022-12-25T14:13:17.262Z,100768.66
2022-12-25T14:15:48.336Z,100770.41
2022-12-25T14:18:17.590Z,100760.59
2022-12-25T14:20:59.191Z,100759.72
2022-12-25T14:23:27.872Z,100756.13
2022-12-25T14:25:55.791Z,100747.25
2022-12-25T14:28:32.150Z,100753.47
2022-12-25T14:31:02.925Z,100753.47
2022-12-25T14:33:37.575Z,100745.47
2022-12-25T14:36:06.662Z,100750.81
2022-12-25T14:38:35.894Z,100747.22
2022-12-25T14:41:05.832Z,100747.22
2022-12-25T14:43:34.625Z,100734.75
2022-12-25T14:46:07.160Z,100735.63
2022-12-25T14:48:35.124Z,100734.69
2022-12-25T14:51:05.037Z,100736.47
2022-12-25T14:53:37.282Z,100743.63
2022-12-25T14:56:05.914Z,100733.84
2022-12-25T14:58:41.310Z,100732.06
2022-12-25T15:01:22.372Z,100735.59
2022-12-25T15:03:50.727Z,100732.94
2022-12-25T15:06:22.117Z,100729.34
2022-12-25T15:08:57.854Z,100724.91
2022-12-25T15:11:25.638Z,100721.31
2022-12-25T15:13:53.556Z,100715.06
2022-12-25T15:16:25.747Z,100714.19
2022-12-25T15:18:54.776Z,100708.88
2022-12-25T15:21:27.236Z,100707.09
2022-12-25T15:23:55.271Z,100698.19
2022-12-25T15:26:23.511Z,100698.16
2022-12-25T15:28:51.568Z,100696.34
2022-12-25T15:31:25.129Z,100691.88
2022-12-25T15:33:53.736Z,100689.16
2022-12-25T15:36:21.519Z,100683.78
2022-12-25T15:38:49.621Z,100687.34
2022-12-25T15:41:33.678Z,100674.84
2022-12-25T15:44:01.843Z,100671.31
2022-12-25T15:46:31.008Z,100682.03
2022-12-25T15:48:59.016Z,100682.88
2022-12-25T15:51:27.155Z,100685.53
2022-12-25T15:53:55.015Z,100678.44
2022-12-25T15:56:24.470Z,100676.63
2022-12-25T15:58:52.765Z,100679.28
2022-12-25T16:01:21.696Z,100678.38
2022-12-25T16:03:50.970Z,100673.88
2022-12-25T16:06:19.624Z,100685.47
2022-12-25T16:08:47.421Z,100680.97
2022-12-25T16:14:22.962Z,100688.94
2022-12-25T16:16:53.390Z,100677.28
2022-12-25T16:19:23.110Z,100683.53
2022-12-25T16:21:50.959Z,100669.25
2022-12-25T16:24:18.869Z,100677.25
2022-12-25T16:26:46.675Z,100681.72
2022-12-25T16:29:14.335Z,100672.78
2022-12-25T16:31:42.266Z,100671.88
2022-12-25T16:34:11.153Z,100675.47
2022-12-25T16:36:43.542Z,100681.69
2022-12-25T16:39:11.354Z,100675.44
2022-12-25T16:41:39.171Z,100675.41
2022-12-25T16:44:09.987Z,100681.63
2022-12-25T16:46:38.597Z,100682.56
2022-12-25T16:49:06.462Z,100684.28
2022-12-25T16:51:34.420Z,100675.34
2022-12-25T16:54:03.737Z,100669.13
2022-12-25T16:56:32.383Z,100670.84
2022-12-25T16:59:00.956Z,100645.91
2022-12-25T17:01:28.909Z,100654.78
2022-12-25T17:04:01.486Z,100667.25
2022-12-25T17:06:29.447Z,100663.66
2022-12-25T17:08:59.478Z,100659.19
2022-12-25T17:11:29.939Z,100660.97
2022-12-25T17:13:59.752Z,100658.31
2022-12-25T17:16:30.064Z,100663.59
2022-12-25T17:19:01.184Z,100663.59
2022-12-25T17:21:30.133Z,100661.84
2022-12-25T17:24:03.160Z,100662.72
2022-12-25T17:26:33.746Z,100660.88
2022-12-25T17:29:01.758Z,100665.28
2022-12-25T17:31:30.013Z,100667.97
2022-12-25T17:33:57.816Z,100667.06
2022-12-25T17:36:25.607Z,100670.69
2022-12-25T17:38:53.423Z,100671.59
2022-12-25T17:41:21.467Z,100668.00
2022-12-25T17:43:50.583Z,100659.06
2022-12-25T17:46:19.701Z,100659.94
2022-12-25T17:48:49.891Z,100664.38
2022-12-25T17:51:19.446Z,100667.03
2022-12-25T17:53:48.920Z,100664.38
2022-12-25T17:56:17.882Z,100661.69
2022-12-25T17:58:46.062Z,100654.56
2022-12-25T18:01:16.891Z,100662.59
2022-12-25T18:03:45.554Z,100661.69
2022-12-25T18:06:16.826Z,100659.00
2022-12-25T18:08:45.915Z,100671.53
2022-12-25T18:11:15.482Z,100668.84
2022-12-25T18:13:44.708Z,100689.41
2022-12-25T18:16:13.676Z,100696.50
2022-12-25T18:18:47.975Z,100700.03
2022-12-25T18:21:19.407Z,100680.41
2022-12-25T18:23:47.299Z,100692.03
2022-12-25T18:26:15.280Z,100685.88
2022-12-25T18:28:43.953Z,100677.91
2022-12-25T18:31:15.802Z,100678.78
2022-12-25T18:33:45.064Z,100680.56
2022-12-25T18:36:13.964Z,100687.69
2022-12-25T18:38:42.162Z,100677.94
2022-12-25T18:41:11.389Z,100678.88
2022-12-25T18:43:54.094Z,100677.09
2022-12-25T18:46:24.548Z,100677.09
2022-12-25T18:48:55.361Z,100673.53
2022-12-25T18:51:23.169Z,100684.22
2022-12-25T18:53:51.026Z,100680.69
2022-12-25T18:56:19.534Z,100678.91
2022-12-25T18:58:47.953Z,100691.38
2022-12-25T19:01:17.621Z,100694.06
2022-12-25T19:03:46.356Z,100699.44
2022-12-25T19:06:19.754Z,100696.78
2022-12-25T19:08:47.689Z,100694.97
2022-12-25T19:11:15.582Z,100705.69
2022-12-25T19:13:44.192Z,100701.28
2022-12-25T19:16:12.164Z,100698.59
2022-12-25T19:18:40.645Z,100698.59
2022-12-25T19:21:09.730Z,100693.28
2022-12-25T19:23:39.336Z,100692.44
2022-12-25T19:26:08.042Z,100695.97
2022-12-25T19:28:36.233Z,100695.97
2022-12-25T19:31:07.434Z,100687.06
2022-12-25T19:33:36.466Z,100691.53
2022-12-25T19:36:07.395Z,100703.16
2022-12-25T19:38:35.701Z,100697.88
2022-12-25T19:41:08.225Z,100697.88
2022-12-25T19:43:38.082Z,100702.34
2022-12-25T19:46:07.677Z,100708.59
2022-12-25T19:48:36.006Z,100705.91
2022-12-25T19:51:03.686Z,100710.38
2022-12-25T19:53:32.032Z,100696.97
2022-12-25T19:56:02.869Z,100697.88
2022-12-25T19:58:32.065Z,100688.06
2022-12-25T20:01:00.722Z,100691.63
2022-12-25T20:03:29.177Z,100691.63
2022-12-25T20:05:57.160Z,100693.44
2022-12-25T20:08:25.853Z,100686.31
2022-12-25T20:10:57.979Z,100688.94
2022-12-25T20:13:25.984Z,100688.97
2022-12-25T20:16:00.874Z,100691.63
2022-12-25T20:18:28.718Z,100699.63
2022-12-25T20:21:01.792Z,100703.22
2022-12-25T20:23:29.759Z,100701.47
2022-12-25T20:26:01.003Z,100716.63
2022-12-25T20:28:29.262Z,100721.94
2022-12-25T20:30:58.694Z,100717.50
2022-12-25T20:33:26.446Z,100713.91
2022-12-25T20:35:55.093Z,100702.28
2022-12-25T20:38:28.058Z,100716.56
2022-12-25T20:41:26.270Z,100697.84
2022-12-25T20:43:48.692Z,100714.78
2022-12-25T20:46:18.287Z,100709.41
2022-12-25T20:48:46.457Z,100701.34
2022-12-25T20:51:16.322Z,100702.25
2022-12-25T20:53:45.040Z,100704.88
2022-12-25T20:56:14.583Z,100703.06
2022-12-25T20:58:42.343Z,100703.03
2022-12-25T21:01:13.936Z,100703.06
2022-12-25T21:03:43.902Z,100719.13
2022-12-25T21:06:12.155Z,100732.56
2022-12-25T21:08:40.725Z,100710.25
2022-12-25T21:11:09.113Z,100709.28
2022-12-25T21:13:40.173Z,100710.19
2022-12-25T21:16:10.125Z,100692.34
2022-12-25T21:18:38.085Z,100692.34
2022-12-25T21:21:08.256Z,100700.34
2022-12-25T21:23:37.684Z,100712.00
2022-12-25T21:26:13.586Z,100711.09
2022-12-25T21:28:41.294Z,100717.31
2022-12-25T21:31:09.638Z,100713.75
2022-12-25T21:33:52.006Z,100728.06
2022-12-25T21:36:23.615Z,100735.16
2022-12-25T21:38:54.591Z,100724.44
2022-12-25T21:41:22.634Z,100744.97
2022-12-25T21:43:50.565Z,100753.88
2022-12-25T21:46:18.468Z,100758.34
2022-12-25T21:48:46.674Z,100767.25
2022-12-25T21:51:34.459Z,100759.19
2022-12-25T21:54:04.180Z,100750.28
2022-12-25T21:56:36.001Z,100759.22
2022-12-25T21:59:08.509Z,100761.03
2022-12-25T22:01:38.381Z,100748.56
2022-12-25T22:04:09.510Z,100755.72
2022-12-25T22:06:54.653Z,100744.09
2022-12-25T22:09:24.452Z,100753.91
2022-12-25T22:12:09.938Z,100742.31
2022-12-25T22:14:55.541Z,100741.47
2022-12-25T22:17:44.027Z,100757.50
2022-12-25T22:20:14.094Z,100757.47
2022-12-25T22:22:41.816Z,100768.13
2022-12-25T22:25:11.852Z,100761.00
2022-12-25T22:27:41.140Z,100761.88
2022-12-25T22:30:11.631Z,100762.78
2022-12-25T22:32:40.086Z,100766.31
2022-12-25T22:35:08.577Z,100767.19
2022-12-25T22:37:36.978Z,100770.72
2022-12-25T22:40:05.921Z,100777.88
2022-12-25T22:42:35.343Z,100770.69
2022-12-25T22:45:03.275Z,100788.56
2022-12-25T22:47:31.087Z,100790.34
2022-12-25T22:49:58.768Z,100793.00
2022-12-25T22:52:26.607Z,100777.84
2022-12-25T22:54:54.334Z,100777.88
2022-12-25T22:57:22.015Z,100780.53
2022-12-25T22:59:52.656Z,100763.59
2022-12-25T23:02:23.503Z,100774.25
2022-12-25T23:04:51.522Z,100796.59
2022-12-25T23:07:19.243Z,100789.41
2022-12-25T23:09:47.018Z,100803.75
2022-12-25T23:12:28.990Z,100801.94
2022-12-25T23:14:58.368Z,100799.25
2022-12-25T23:17:43.287Z,100800.13
2022-12-25T23:20:31.534Z,100801.03
2022-12-25T23:23:16.878Z,100799.25
2022-12-25T23:26:01.908Z,100800.16
2022-12-25T23:28:47.248Z,100801.06
2022-12-25T23:31:16.461Z,100777.84
2022-12-25T23:33:44.249Z,100780.50
2022-12-25T23:36:12.005Z,100787.66
2022-12-25T23:38:39.683Z,100790.31
2022-12-25T23:41:08.933Z,100784.03
2022-12-25T23:43:36.599Z,100776.00
2022-12-25T23:46:04.595Z,100781.38
2022-12-25T23:48:33.695Z,100769.81
2022-12-25T23:51:04.265Z,100776.03
2022-12-25T23:53:32.215Z,100776.94
2022-12-25T23:56:00.677Z,100784.03
2022-12-25T23:58:29.505Z,100789.41
